sensor_id;sensor_type;location;lat;lon;timestamp;pressure;altitude;pressure_sealevel;temperature;humidity
71194;BME280;58903;47.210;8.618;2023-04-16T00:02:31;94176.53;;;26.56;40.27
71194;BME280;58903;47.210;8.618;2023-04-16T00:05:16;94184.97;;;26.64;40.38
71194;BME280;58903;47.210;8.618;2023-04-16T00:07:52;94180.72;;;26.63;40.58
71194;BME280;58903;47.210;8.618;2023-04-16T00:10:34;94173.50;;;26.60;40.99
71194;BME280;58903;47.210;8.618;2023-04-16T00:13:13;94176.00;;;26.58;40.59
71194;BME280;58903;47.210;8.618;2023-04-16T00:15:41;94180.59;;;26.55;40.76
71194;BME280;58903;47.210;8.618;2023-04-16T00:18:07;94184.81;;;26.56;40.28
71194;BME280;58903;47.210;8.618;2023-04-16T00:20:48;94174.53;;;26.57;40.56
71194;BME280;58903;47.210;8.618;2023-04-16T00:23:26;94177.84;;;26.55;40.99
71194;BME280;58903;47.210;8.618;2023-04-16T00:26:20;94175.56;;;26.54;40.97
71194;BME280;58903;47.210;8.618;2023-04-16T00:28:57;94177.59;;;26.53;40.72
71194;BME280;58903;47.210;8.618;2023-04-16T00:31:32;94178.56;;;26.56;40.72
71194;BME280;58903;47.210;8.618;2023-04-16T00:33:59;94171.34;;;26.53;40.64
71194;BME280;58903;47.210;8.618;2023-04-16T00:36:27;94175.88;;;26.50;41.02
71194;BME280;58903;47.210;8.618;2023-04-16T00:39:03;94178.88;;;26.52;40.54
71194;BME280;58903;47.210;8.618;2023-04-16T00:41:29;94176.63;;;26.51;40.81
71194;BME280;58903;47.210;8.618;2023-04-16T00:44:05;94178.41;;;26.48;40.47
71194;BME280;58903;47.210;8.618;2023-04-16T00:46:31;94178.41;;;26.48;40.77
71194;BME280;58903;47.210;8.618;2023-04-16T00:49:02;94171.94;;;26.46;40.71
71194;BME280;58903;47.210;8.618;2023-04-16T00:51:40;94177.00;;;26.42;40.89
71194;BME280;58903;47.210;8.618;2023-04-16T00:54:19;94176.47;;;26.43;40.55
71194;BME280;58903;47.210;8.618;2023-04-16T00:56:45;94172.97;;;26.43;40.64
71194;BME280;58903;47.210;8.618;2023-04-16T00:59:12;94179.75;;;26.42;40.50
71194;BME280;58903;47.210;8.618;2023-04-16T01:01:49;94176.78;;;26.40;41.05
71194;BME280;58903;47.210;8.618;2023-04-16T01:04:15;94177.53;;;26.40;41.09
71194;BME280;58903;47.210;8.618;2023-04-16T01:06:50;94176.78;;;26.40;41.22
71194;BME280;58903;47.210;8.618;2023-04-16T01:09:22;94170.50;;;26.39;40.78
71194;BME280;58903;47.210;8.618;2023-04-16T01:11:50;94177.53;;;26.40;41.08
71194;BME280;58903;47.210;8.618;2023-04-16T01:14:17;94165.75;;;26.40;40.57
71194;BME280;58903;47.210;8.618;2023-04-16T01:16:43;94172.00;;;26.40;41.35
71194;BME280;58903;47.210;8.618;2023-04-16T01:19:11;94181.22;;;26.43;40.46
71194;BME280;58903;47.210;8.618;2023-04-16T01:21:37;94173.28;;;26.39;40.88
71194;BME280;58903;47.210;8.618;2023-04-16T01:24:05;94175.28;;;26.39;40.76
71194;BME280;58903;47.210;8.618;2023-04-16T01:26:31;94172.50;;;26.39;40.86
71194;BME280;58903;47.210;8.618;2023-04-16T01:29:01;94175.28;;;26.39;40.91
71194;BME280;58903;47.210;8.618;2023-04-16T01:31:31;94172.28;;;26.37;40.74
71194;BME280;58903;47.210;8.618;2023-04-16T01:34:02;94180.56;;;26.37;40.82
71194;BME280;58903;47.210;8.618;2023-04-16T01:36:28;94179.09;;;26.36;40.90
71194;BME280;58903;47.210;8.618;2023-04-16T01:38:56;94187.38;;;26.36;41.53
71194;BME280;58903;47.210;8.618;2023-04-16T01:41:22;94180.88;;;26.33;40.96
71194;BME280;58903;47.210;8.618;2023-04-16T01:43:52;94181.63;;;26.34;40.48
71194;BME280;58903;47.210;8.618;2023-04-16T01:46:23;94189.59;;;26.37;41.29
71194;BME280;58903;47.210;8.618;2023-04-16T01:48:52;94183.84;;;26.35;41.25
71194;BME280;58903;47.210;8.618;2023-04-16T01:51:21;94184.38;;;26.34;40.81
71194;BME280;58903;47.210;8.618;2023-04-16T01:53:50;94185.84;;;26.35;40.61
71194;BME280;58903;47.210;8.618;2023-04-16T01:56:16;94188.41;;;26.33;41.37
71194;BME280;58903;47.210;8.618;2023-04-16T01:59:18;94197.66;;;26.35;40.87
71194;BME280;58903;47.210;8.618;2023-04-16T02:02:07;94190.84;;;26.36;40.76
71194;BME280;58903;47.210;8.618;2023-04-16T02:04:47;94192.66;;;26.34;41.38
71194;BME280;58903;47.210;8.618;2023-04-16T02:07:28;94193.16;;;26.32;40.79
71194;BME280;58903;47.210;8.618;2023-04-16T02:09:58;94193.16;;;26.32;41.33
71194;BME280;58903;47.210;8.618;2023-04-16T02:12:53;94188.41;;;26.33;40.90
71194;BME280;58903;47.210;8.618;2023-04-16T02:15:32;94187.19;;;26.28;41.09
71194;BME280;58903;47.210;8.618;2023-04-16T02:18:05;94192.44;;;26.32;40.81
71194;BME280;58903;47.210;8.618;2023-04-16T02:23:52;94194.22;;;26.29;40.95
71194;BME280;58903;47.210;8.618;2023-04-16T02:26:30;94194.22;;;26.29;41.24
71194;BME280;58903;47.210;8.618;2023-04-16T02:29:28;94197.69;;;26.30;40.97
71194;BME280;58903;47.210;8.618;2023-04-16T02:31:56;94202.47;;;26.29;41.50
71194;BME280;58903;47.210;8.618;2023-04-16T02:34:22;94198.75;;;26.27;41.23
71194;BME280;58903;47.210;8.618;2023-04-16T02:37:19;94194.72;;;26.28;41.01
71194;BME280;58903;47.210;8.618;2023-04-16T02:39:47;94196.00;;;26.27;41.52
71194;BME280;58903;47.210;8.618;2023-04-16T02:42:32;94189.50;;;26.24;41.55
71194;BME280;58903;47.210;8.618;2023-04-16T02:44:59;94196.53;;;26.25;41.24
71194;BME280;58903;47.210;8.618;2023-04-16T02:47:25;94198.53;;;26.25;41.53
71194;BME280;58903;47.210;8.618;2023-04-16T02:49:54;94198.75;;;26.27;41.52
71194;BME280;58903;47.210;8.618;2023-04-16T02:52:30;94201.50;;;26.27;41.35
71194;BME280;58903;47.210;8.618;2023-04-16T02:54:57;94193.75;;;26.25;41.39
71194;BME280;58903;47.210;8.618;2023-04-16T02:57:42;94193.75;;;26.25;40.79
71194;BME280;58903;47.210;8.618;2023-04-16T03:00:08;94197.03;;;26.24;41.42
71194;BME280;58903;47.210;8.618;2023-04-16T03:02:59;94197.03;;;26.24;41.26
71194;BME280;58903;47.210;8.618;2023-04-16T03:05:32;94197.03;;;26.24;41.06
71194;BME280;58903;47.210;8.618;2023-04-16T03:07:59;94201.78;;;26.23;40.77
71194;BME280;58903;47.210;8.618;2023-04-16T03:10:46;94193.00;;;26.25;40.93
71194;BME280;58903;47.210;8.618;2023-04-16T03:13:19;94199.78;;;26.24;41.42
71194;BME280;58903;47.210;8.618;2023-04-16T03:15:48;94190.25;;;26.25;41.23
71194;BME280;58903;47.210;8.618;2023-04-16T03:18:14;94204.03;;;26.25;41.58
71194;BME280;58903;47.210;8.618;2023-04-16T03:20:40;94194.25;;;26.24;40.90
71194;BME280;58903;47.210;8.618;2023-04-16T03:23:06;94195.53;;;26.23;40.80
71194;BME280;58903;47.210;8.618;2023-04-16T03:25:35;94196.81;;;26.22;41.15
71194;BME280;58903;47.210;8.618;2023-04-16T03:28:01;94203.81;;;26.23;41.62
71194;BME280;58903;47.210;8.618;2023-04-16T03:30:28;94191.06;;;26.20;40.80
71194;BME280;58903;47.210;8.618;2023-04-16T03:32:57;94202.09;;;26.20;41.71
71194;BME280;58903;47.210;8.618;2023-04-16T03:36:01;94205.06;;;26.22;41.38
71194;BME280;58903;47.210;8.618;2023-04-16T03:38:42;94202.84;;;26.20;41.18
71194;BME280;58903;47.210;8.618;2023-04-16T03:41:15;94199.09;;;26.17;40.92
71194;BME280;58903;47.210;8.618;2023-04-16T03:44:19;94207.81;;;26.22;41.51
71194;BME280;58903;47.210;8.618;2023-04-16T03:46:46;94208.34;;;26.20;40.97
71194;BME280;58903;47.210;8.618;2023-04-16T03:49:21;94220.13;;;26.21;41.56
71194;BME280;58903;47.210;8.618;2023-04-16T03:52:16;94203.59;;;26.21;41.49
71194;BME280;58903;47.210;8.618;2023-04-16T03:55:14;94213.34;;;26.22;41.58
71194;BME280;58903;47.210;8.618;2023-04-16T03:57:40;94213.88;;;26.20;40.78
71194;BME280;58903;47.210;8.618;2023-04-16T04:00:13;94211.88;;;26.21;40.94
71194;BME280;58903;47.210;8.618;2023-04-16T04:02:42;94212.38;;;26.19;41.56
71194;BME280;58903;47.210;8.618;2023-04-16T04:05:08;94213.34;;;26.22;40.79
71194;BME280;58903;47.210;8.618;2023-04-16T04:07:36;94220.13;;;26.21;41.00
71194;BME280;58903;47.210;8.618;2023-04-16T04:10:02;94210.59;;;26.22;40.91
71194;BME280;58903;47.210;8.618;2023-04-16T04:12:27;94209.09;;;26.21;40.82
71194;BME280;58903;47.210;8.618;2023-04-16T04:14:56;94214.63;;;26.21;41.01
71194;BME280;58903;47.210;8.618;2023-04-16T04:17:22;94220.13;;;26.21;40.98
71194;BME280;58903;47.210;8.618;2023-04-16T04:19:48;94208.63;;;26.16;41.27
71194;BME280;58903;47.210;8.618;2023-04-16T04:22:18;94211.88;;;26.21;40.93
71194;BME280;58903;47.210;8.618;2023-04-16T04:24:57;94211.34;;;26.22;41.23
71194;BME280;58903;47.210;8.618;2023-04-16T04:27:29;94217.81;;;26.25;40.82
71194;BME280;58903;47.210;8.618;2023-04-16T04:30:07;94210.31;;;26.25;40.86
71194;BME280;58903;47.210;8.618;2023-04-16T04:32:35;94214.84;;;26.23;41.10
71194;BME280;58903;47.210;8.618;2023-04-16T04:35:19;94227.88;;;26.22;41.26
71194;BME280;58903;47.210;8.618;2023-04-16T04:37:57;94224.91;;;26.20;40.84
71194;BME280;58903;47.210;8.618;2023-04-16T04:40:26;94224.16;;;26.20;41.30
71194;BME280;58903;47.210;8.618;2023-04-16T04:42:51;94227.13;;;26.22;41.15
71194;BME280;58903;47.210;8.618;2023-04-16T04:45:19;94220.13;;;26.21;41.37
71194;BME280;58903;47.210;8.618;2023-04-16T04:47:48;94223.91;;;26.17;41.70
71194;BME280;58903;47.210;8.618;2023-04-16T04:50:18;94230.19;;;26.18;41.54
71194;BME280;58903;47.210;8.618;2023-04-16T04:52:44;94222.94;;;26.15;41.53
71194;BME280;58903;47.210;8.618;2023-04-16T04:55:12;94229.97;;;26.16;41.60
71194;BME280;58903;47.210;8.618;2023-04-16T04:57:48;94236.19;;;26.16;41.21
71194;BME280;58903;47.210;8.618;2023-04-16T05:00:15;94232.72;;;26.16;41.44
71194;BME280;58903;47.210;8.618;2023-04-16T05:03:01;94239.47;;;26.15;41.67
71194;BME280;58903;47.210;8.618;2023-04-16T05:05:30;94231.72;;;26.13;40.92
71194;BME280;58903;47.210;8.618;2023-04-16T05:07:56;94241.25;;;26.12;41.67
71194;BME280;58903;47.210;8.618;2023-04-16T05:10:22;94244.25;;;26.14;40.93
71194;BME280;58903;47.210;8.618;2023-04-16T05:12:55;94234.75;;;26.10;41.23
71194;BME280;58903;47.210;8.618;2023-04-16T05:15:25;94232.53;;;26.08;41.67
71194;BME280;58903;47.210;8.618;2023-04-16T05:18:03;94244.72;;;26.19;41.51
71194;BME280;58903;47.210;8.618;2023-04-16T05:24:12;94251.25;;;26.15;41.15
71194;BME280;58903;47.210;8.618;2023-04-16T05:26:48;94254.78;;;26.16;41.40
71194;BME280;58903;47.210;8.618;2023-04-16T05:29:29;94261.00;;;26.16;41.86
71194;BME280;58903;47.210;8.618;2023-04-16T05:35:20;94255.25;;;26.14;41.11
71194;BME280;58903;47.210;8.618;2023-04-16T05:37:56;94260.78;;;26.14;41.80
71194;BME280;58903;47.210;8.618;2023-04-16T05:40:22;94256.31;;;26.11;41.21
71194;BME280;58903;47.210;8.618;2023-04-16T05:43:01;94264.81;;;26.13;40.94
71194;BME280;58903;47.210;8.618;2023-04-16T05:45:42;94264.81;;;26.13;41.34
71194;BME280;58903;47.210;8.618;2023-04-16T05:48:15;94263.31;;;26.12;41.30
71194;BME280;58903;47.210;8.618;2023-04-16T05:50:43;94268.09;;;26.12;41.08
71194;BME280;58903;47.210;8.618;2023-04-16T05:53:19;94274.34;;;26.12;40.86
71194;BME280;58903;47.210;8.618;2023-04-16T05:55:51;94274.34;;;26.12;41.82
71194;BME280;58903;47.210;8.618;2023-04-16T05:58:27;94268.09;;;26.12;41.34
71194;BME280;58903;47.210;8.618;2023-04-16T06:01:31;94266.06;;;26.12;41.03
71194;BME280;58903;47.210;8.618;2023-04-16T06:04:07;94271.34;;;26.10;40.98
71194;BME280;58903;47.210;8.618;2023-04-16T06:06:36;94279.13;;;26.12;41.37
71194;BME280;58903;47.210;8.618;2023-04-16T06:09:02;94283.88;;;26.11;40.97
71194;BME280;58903;47.210;8.618;2023-04-16T06:11:33;94280.59;;;26.13;41.15
71194;BME280;58903;47.210;8.618;2023-04-16T06:14:20;94276.59;;;26.14;41.48
71194;BME280;58903;47.210;8.618;2023-04-16T06:17:04;94284.34;;;26.15;41.27
71194;BME280;58903;47.210;8.618;2023-04-16T06:19:47;94281.56;;;26.15;41.31
71194;BME280;58903;47.210;8.618;2023-04-16T06:22:14;94282.81;;;26.14;41.38
71194;BME280;58903;47.210;8.618;2023-04-16T06:24:56;94279.84;;;26.12;41.80
71194;BME280;58903;47.210;8.618;2023-04-16T06:27:31;94290.16;;;26.12;41.21
71194;BME280;58903;47.210;8.618;2023-04-16T06:30:17;94296.63;;;26.14;41.29
71194;BME280;58903;47.210;8.618;2023-04-16T06:33:04;94294.09;;;26.16;41.43
71194;BME280;58903;47.210;8.618;2023-04-16T06:35:31;94291.63;;;26.13;41.40
71194;BME280;58903;47.210;8.618;2023-04-16T06:38:09;94296.63;;;26.14;41.35
71194;BME280;58903;47.210;8.618;2023-04-16T06:40:38;94299.13;;;26.12;42.05
71194;BME280;58903;47.210;8.618;2023-04-16T06:43:13;94301.91;;;26.12;41.69
71194;BME280;58903;47.210;8.618;2023-04-16T06:45:41;94303.19;;;26.11;42.20
71194;BME280;58903;47.210;8.618;2023-04-16T06:48:07;94304.88;;;26.14;41.64
71194;BME280;58903;47.210;8.618;2023-04-16T06:50:34;94306.69;;;26.12;42.28
71194;BME280;58903;47.210;8.618;2023-04-16T06:53:01;94305.72;;;26.09;41.70
71194;BME280;58903;47.210;8.618;2023-04-16T06:55:35;94322.47;;;26.11;42.42
71194;BME280;58903;47.210;8.618;2023-04-16T06:58:01;94315.44;;;26.10;41.81
71194;BME280;58903;47.210;8.618;2023-04-16T07:00:27;94319.94;;;26.13;41.65
71194;BME280;58903;47.210;8.618;2023-04-16T07:02:53;94319.38;;;26.21;41.82
71194;BME280;58903;47.210;8.618;2023-04-16T07:05:21;94316.03;;;26.28;41.32
71194;BME280;58903;47.210;8.618;2023-04-16T07:07:47;94315.00;;;26.31;41.78
71194;BME280;58903;47.210;8.618;2023-04-16T07:10:13;94324.31;;;26.28;42.14
71194;BME280;58903;47.210;8.618;2023-04-16T07:12:53;94325.34;;;26.25;41.92
71194;BME280;58903;47.210;8.618;2023-04-16T07:15:29;94323.84;;;26.24;41.74
71194;BME280;58903;47.210;8.618;2023-04-16T07:17:55;94317.56;;;26.23;41.17
71194;BME280;58903;47.210;8.618;2023-04-16T07:20:29;94318.34;;;26.24;41.78
71194;BME280;58903;47.210;8.618;2023-04-16T07:23:02;94313.78;;;26.26;41.78
71194;BME280;58903;47.210;8.618;2023-04-16T07:25:33;94315.81;;;26.26;41.41
71194;BME280;58903;47.210;8.618;2023-04-16T07:28:27;94325.34;;;26.25;41.88
71194;BME280;58903;47.210;8.618;2023-04-16T07:30:53;94318.34;;;26.24;41.74
71194;BME280;58903;47.210;8.618;2023-04-16T07:33:20;94322.13;;;26.21;41.18
71194;BME280;58903;47.210;8.618;2023-04-16T07:35:55;94313.13;;;26.20;41.85
71194;BME280;58903;47.210;8.618;2023-04-16T07:38:31;94325.34;;;26.25;41.88
71194;BME280;58903;47.210;8.618;2023-04-16T07:41:01;94328.59;;;26.23;41.36
71194;BME280;58903;47.210;8.618;2023-04-16T07:43:40;94328.09;;;26.25;42.09
71194;BME280;58903;47.210;8.618;2023-04-16T07:46:19;94328.34;;;26.27;41.38
71194;BME280;58903;47.210;8.618;2023-04-16T07:49:06;94330.88;;;26.25;41.02
71194;BME280;58903;47.210;8.618;2023-04-16T07:51:32;94331.38;;;26.23;41.42
71194;BME280;58903;47.210;8.618;2023-04-16T07:54:09;94340.16;;;26.22;41.63
71194;BME280;58903;47.210;8.618;2023-04-16T07:56:35;94344.41;;;26.23;42.31
71194;BME280;58903;47.210;8.618;2023-04-16T07:59:17;94338.63;;;26.26;42.03
71194;BME280;58903;47.210;8.618;2023-04-16T08:01:56;94343.09;;;26.29;41.92
71194;BME280;58903;47.210;8.618;2023-04-16T08:04:23;94353.38;;;26.29;41.72
71194;BME280;58903;47.210;8.618;2023-04-16T08:06:50;94354.63;;;26.28;41.87
71194;BME280;58903;47.210;8.618;2023-04-16T08:09:25;94365.16;;;26.29;42.07
71194;BME280;58903;47.210;8.618;2023-04-16T08:11:55;94359.91;;;26.26;42.33
71194;BME280;58903;47.210;8.618;2023-04-16T08:14:34;94362.44;;;26.24;41.90
71194;BME280;58903;47.210;8.618;2023-04-16T08:17:01;94364.72;;;26.25;42.37
71194;BME280;58903;47.210;8.618;2023-04-16T08:19:29;94367.69;;;26.27;42.81
71194;BME280;58903;47.210;8.618;2023-04-16T08:22:01;94366.94;;;26.27;41.94
71194;BME280;58903;47.210;8.618;2023-04-16T08:24:57;94376.69;;;26.28;42.01
71194;BME280;58903;47.210;8.618;2023-04-16T08:27:25;94372.97;;;26.25;42.74
71194;BME280;58903;47.210;8.618;2023-04-16T08:29:51;94366.16;;;26.32;42.29
71194;BME280;58903;47.210;8.618;2023-04-16T08:32:27;94371.38;;;26.35;42.54
71194;BME280;58903;47.210;8.618;2023-04-16T08:34:53;94374.41;;;26.32;42.37
71194;BME280;58903;47.210;8.618;2023-04-16T08:37:34;94379.94;;;26.32;42.57
71194;BME280;58903;47.210;8.618;2023-04-16T08:40:10;94381.19;;;26.31;42.21
71194;BME280;58903;47.210;8.618;2023-04-16T08:42:44;94383.94;;;26.31;42.10
71194;BME280;58903;47.210;8.618;2023-04-16T08:45:17;94383.41;;;26.32;42.35
71194;BME280;58903;47.210;8.618;2023-04-16T08:47:52;94385.69;;;26.34;42.14
71194;BME280;58903;47.210;8.618;2023-04-16T08:50:25;94387.63;;;26.39;42.17
71194;BME280;58903;47.210;8.618;2023-04-16T08:58:28;94387.28;;;26.48;41.90
71194;BME280;58903;47.210;8.618;2023-04-16T09:00:55;94388.03;;;26.48;41.90
71194;BME280;58903;47.210;8.618;2023-04-16T09:03:23;94385.81;;;26.47;41.74
71194;BME280;58903;47.210;8.618;2023-04-16T09:05:53;94393.25;;;26.52;41.46
71194;BME280;58903;47.210;8.618;2023-04-16T09:10:57;94389.69;;;26.57;41.51
71194;BME280;58903;47.210;8.618;2023-04-16T09:13:26;94390.03;;;26.48;41.89
71194;BME280;58903;47.210;8.618;2023-04-16T09:15:56;94396.25;;;26.54;41.19
71194;BME280;58903;47.210;8.618;2023-04-16T09:18:25;94398.78;;;26.52;41.62
71194;BME280;58903;47.210;8.618;2023-04-16T09:21:08;94398.09;;;26.46;41.74
71194;BME280;58903;47.210;8.618;2023-04-16T09:23:43;94395.84;;;26.44;41.72
71194;BME280;58903;47.210;8.618;2023-04-16T09:26:09;94398.19;;;26.35;41.83
71194;BME280;58903;47.210;8.618;2023-04-16T09:28:45;94399.94;;;26.38;42.03
71194;BME280;58903;47.210;8.618;2023-04-16T09:31:15;94394.91;;;26.36;42.03
71194;BME280;58903;47.210;8.618;2023-04-16T09:34:05;94402.44;;;26.36;42.13
71194;BME280;58903;47.210;8.618;2023-04-16T09:36:35;94407.22;;;26.35;42.19
71194;BME280;58903;47.210;8.618;2023-04-16T09:39:19;94409.50;;;26.31;41.82
71194;BME280;58903;47.210;8.618;2023-04-16T09:41:55;94410.00;;;26.30;42.54
71194;BME280;58903;47.210;8.618;2023-04-16T09:44:33;94407.75;;;26.34;42.10
71194;BME280;58903;47.210;8.618;2023-04-16T09:47:13;94410.25;;;26.32;42.04
71194;BME280;58903;47.210;8.618;2023-04-16T09:49:42;94418.53;;;26.32;42.24
71194;BME280;58903;47.210;8.618;2023-04-16T09:52:13;94413.47;;;26.36;41.97
71194;BME280;58903;47.210;8.618;2023-04-16T09:54:52;94418.28;;;26.30;42.96
71194;BME280;58903;47.210;8.618;2023-04-16T09:57:21;94417.78;;;26.31;42.63
71194;BME280;58903;47.210;8.618;2023-04-16T09:59:53;94418.81;;;26.28;42.45
71194;BME280;58903;47.210;8.618;2023-04-16T10:02:38;94418.81;;;26.28;43.18
71194;BME280;58903;47.210;8.618;2023-04-16T10:05:06;94419.31;;;26.27;43.56
71194;BME280;58903;47.210;8.618;2023-04-16T10:07:38;94425.06;;;26.29;43.44
71194;BME280;58903;47.210;8.618;2023-04-16T10:10:07;94420.56;;;26.26;44.14
71194;BME280;58903;47.210;8.618;2023-04-16T10:12:43;94422.09;;;26.27;44.64
71194;BME280;58903;47.210;8.618;2023-04-16T10:15:12;94418.88;;;26.23;44.96
71194;BME280;58903;47.210;8.618;2023-04-16T10:17:48;94429.38;;;26.24;44.98
71194;BME280;58903;47.210;8.618;2023-04-16T10:20:29;94430.13;;;26.25;44.85
71194;BME280;58903;47.210;8.618;2023-04-16T10:22:58;94435.88;;;26.27;44.73
71194;BME280;58903;47.210;8.618;2023-04-16T10:25:30;94428.06;;;26.31;44.11
71194;BME280;58903;47.210;8.618;2023-04-16T10:27:57;94431.56;;;26.31;44.51
71194;BME280;58903;47.210;8.618;2023-04-16T10:30:35;94427.31;;;26.30;44.52
71194;BME280;58903;47.210;8.618;2023-04-16T10:33:35;94429.03;;;26.33;44.26
71194;BME280;58903;47.210;8.618;2023-04-16T10:36:11;94429.56;;;26.32;44.56
71194;BME280;58903;47.210;8.618;2023-04-16T10:38:45;94428.81;;;26.31;44.36
71194;BME280;58903;47.210;8.618;2023-04-16T10:41:25;94435.09;;;26.32;44.27
71194;BME280;58903;47.210;8.618;2023-04-16T10:44:03;94428.59;;;26.29;44.66
71194;BME280;58903;47.210;8.618;2023-04-16T10:46:33;94428.59;;;26.29;44.22
71194;BME280;58903;47.210;8.618;2023-04-16T10:49:15;94440.34;;;26.30;44.56
71194;BME280;58903;47.210;8.618;2023-04-16T10:54:34;94437.34;;;26.28;44.13
71194;BME280;58903;47.210;8.618;2023-04-16T10:57:07;94428.84;;;26.26;44.57
71194;BME280;58903;47.210;8.618;2023-04-16T10:59:48;94426.31;;;26.28;44.09
71194;BME280;58903;47.210;8.618;2023-04-16T11:02:27;94429.84;;;26.28;44.09
71194;BME280;58903;47.210;8.618;2023-04-16T11:04:56;94430.34;;;26.27;44.75
71194;BME280;58903;47.210;8.618;2023-04-16T11:07:33;94430.28;;;26.32;43.82
71194;BME280;58903;47.210;8.618;2023-04-16T11:10:17;94428.81;;;26.31;44.27
71194;BME280;58903;47.210;8.618;2023-04-16T11:12:54;94429.28;;;26.35;43.39
71194;BME280;58903;47.210;8.618;2023-04-16T11:15:33;94429.50;;;26.37;43.56
71194;BME280;58903;47.210;8.618;2023-04-16T11:18:08;94430.94;;;26.44;43.54
71194;BME280;58903;47.210;8.618;2023-04-16T11:20:40;94425.44;;;26.44;42.89
71194;BME280;58903;47.210;8.618;2023-04-16T11:23:09;94428.50;;;26.40;43.51
71194;BME280;58903;47.210;8.618;2023-04-16T11:25:37;94434.25;;;26.37;43.69
71194;BME280;58903;47.210;8.618;2023-04-16T11:28:03;94435.81;;;26.32;43.41
71194;BME280;58903;47.210;8.618;2023-04-16T11:30:33;94430.81;;;26.31;43.44
71194;BME280;58903;47.210;8.618;2023-04-16T11:33:10;94430.81;;;26.31;43.71
71194;BME280;58903;47.210;8.618;2023-04-16T11:35:39;94436.09;;;26.29;44.31
71194;BME280;58903;47.210;8.618;2023-04-16T11:38:31;94438.34;;;26.30;43.71
71194;BME280;58903;47.210;8.618;2023-04-16T11:40:57;94436.28;;;26.36;43.12
71194;BME280;58903;47.210;8.618;2023-04-16T11:43:25;94437.25;;;26.39;43.34
71194;BME280;58903;47.210;8.618;2023-04-16T11:46:01;94441.28;;;26.38;43.87
71194;BME280;58903;47.210;8.618;2023-04-16T11:48:57;94439.03;;;26.36;43.24
71194;BME280;58903;47.210;8.618;2023-04-16T11:51:38;94435.53;;;26.36;43.12
71194;BME280;58903;47.210;8.618;2023-04-16T11:54:26;94441.06;;;26.36;43.32
71194;BME280;58903;47.210;8.618;2023-04-16T11:56:59;94439.03;;;26.36;43.26
71194;BME280;58903;47.210;8.618;2023-04-16T12:06:07;94430.66;;;26.47;43.14
71194;BME280;58903;47.210;8.618;2023-04-16T12:08:45;94440.66;;;26.50;42.95
71194;BME280;58903;47.210;8.618;2023-04-16T12:11:41;94440.97;;;26.47;43.23
71194;BME280;58903;47.210;8.618;2023-04-16T12:14:12;94443.47;;;26.45;42.99
71194;BME280;58903;47.210;8.618;2023-04-16T12:17:18;94443.22;;;26.43;43.66
71194;BME280;58903;47.210;8.618;2023-04-16T12:19:59;94442.50;;;26.42;43.56
71194;BME280;58903;47.210;8.618;2023-04-16T12:22:58;94443.00;;;26.41;43.13
71194;BME280;58903;47.210;8.618;2023-04-16T12:25:45;94446.50;;;26.41;43.27
71194;BME280;58903;47.210;8.618;2023-04-16T12:28:11;94453.81;;;26.39;43.41
71194;BME280;58903;47.210;8.618;2023-04-16T12:30:51;94444.28;;;26.40;42.97
71194;BME280;58903;47.210;8.618;2023-04-16T12:33:26;94447.78;;;26.40;43.68
71194;BME280;58903;47.210;8.618;2023-04-16T12:36:26;94447.03;;;26.40;43.59
71194;BME280;58903;47.210;8.618;2023-04-16T12:39:21;94447.78;;;26.40;43.69
71194;BME280;58903;47.210;8.618;2023-04-16T12:42:05;94444.28;;;26.40;43.04
71194;BME280;58903;47.210;8.618;2023-04-16T12:45:25;94448.81;;;26.37;43.01
71194;BME280;58903;47.210;8.618;2023-04-16T12:48:06;94441.06;;;26.36;43.05
71194;BME280;58903;47.210;8.618;2023-04-16T12:50:36;94454.03;;;26.41;42.96
71194;BME280;58903;47.210;8.618;2023-04-16T12:53:04;94461.06;;;26.42;43.35
71194;BME280;58903;47.210;8.618;2023-04-16T12:56:03;94459.28;;;26.44;42.41
71194;BME280;58903;47.210;8.618;2023-04-16T12:58:29;94457.50;;;26.47;42.63
71194;BME280;58903;47.210;8.618;2023-04-16T13:00:54;94456.28;;;26.42;43.07
71194;BME280;58903;47.210;8.618;2023-04-16T13:03:50;94455.25;;;26.45;43.13
71194;BME280;58903;47.210;8.618;2023-04-16T13:06:16;94456.69;;;26.52;42.46
71194;BME280;58903;47.210;8.618;2023-04-16T13:09:17;94454.97;;;26.49;43.35
71194;BME280;58903;47.210;8.618;2023-04-16T13:11:53;94456.47;;;26.50;43.19
71194;BME280;58903;47.210;8.618;2023-04-16T13:14:29;94456.94;;;26.54;43.06
71194;BME280;58903;47.210;8.618;2023-04-16T13:17:06;94454.41;;;26.56;42.99
71194;BME280;58903;47.210;8.618;2023-04-16T13:19:47;94452.91;;;26.55;42.95
71194;BME280;58903;47.210;8.618;2023-04-16T13:22:54;94445.41;;;26.55;42.96
71194;BME280;58903;47.210;8.618;2023-04-16T13:25:20;94461.41;;;26.57;42.63
71194;BME280;58903;47.210;8.618;2023-04-16T13:27:46;94455.91;;;26.57;42.44
71194;BME280;58903;47.210;8.618;2023-04-16T13:30:30;94458.66;;;26.57;43.04
71194;BME280;58903;47.210;8.618;2023-04-16T13:33:12;94455.38;;;26.58;43.01
71194;BME280;58903;47.210;8.618;2023-04-16T13:35:39;94446.34;;;26.58;42.61
71194;BME280;58903;47.210;8.618;2023-04-16T13:38:18;94460.41;;;26.60;42.41
71194;BME280;58903;47.210;8.618;2023-04-16T13:40:44;94452.63;;;26.58;42.16
71194;BME280;58903;47.210;8.618;2023-04-16T13:43:43;94454.63;;;26.58;42.56
71194;BME280;58903;47.210;8.618;2023-04-16T13:46:13;94449.63;;;26.56;42.51
71194;BME280;58903;47.210;8.618;2023-04-16T13:48:49;94449.41;;;26.54;42.69
71194;BME280;58903;47.210;8.618;2023-04-16T13:51:41;94457.44;;;26.52;42.17
71194;BME280;58903;47.210;8.618;2023-04-16T13:54:32;94446.41;;;26.52;42.35
71194;BME280;58903;47.210;8.618;2023-04-16T13:56:58;94451.41;;;26.54;42.89
71194;BME280;58903;47.210;8.618;2023-04-16T13:59:38;94448.88;;;26.56;42.58
71194;BME280;58903;47.210;8.618;2023-04-16T14:02:05;94451.63;;;26.56;42.78
71194;BME280;58903;47.210;8.618;2023-04-16T14:04:51;94451.16;;;26.57;42.61
71194;BME280;58903;47.210;8.618;2023-04-16T14:07:29;94451.41;;;26.54;42.30
71194;BME280;58903;47.210;8.618;2023-04-16T14:10:29;94455.44;;;26.53;42.54